createdAt,value
2023-06-07T05:47:50.868Z,65.22
2023-06-07T05:48:21.827Z,65.81
2023-06-07T05:48:52.032Z,62.99
2023-06-07T05:49:22.039Z,65.97
2023-06-07T05:49:52.077Z,65.33
2023-06-07T05:50:22.299Z,64.74
2023-06-07T05:50:52.162Z,66.85
2023-06-07T05:51:22.315Z,63.90
2023-06-07T05:51:52.415Z,62.94
2023-06-07T05:52:22.360Z,68.89
2023-06-07T05:52:52.337Z,65.13
2023-06-07T05:53:22.457Z,68.35
2023-06-07T05:53:58.844Z,67.87
2023-06-07T05:54:30.063Z,69.60
2023-06-07T05:54:59.969Z,66.88
2023-06-07T05:55:29.994Z,68.01
2023-06-07T05:56:00.028Z,69.53
2023-06-07T05:56:30.015Z,70.27
2023-06-07T05:56:59.984Z,65.81
2023-06-07T05:57:30.262Z,62.27
2023-06-07T05:58:00.175Z,63.32
2023-06-07T05:58:30.114Z,64.79
2023-06-07T05:59:00.211Z,61.82
2023-06-07T05:59:30.287Z,62.65
2023-06-07T06:00:00.359Z,57.93
2023-06-07T06:00:30.633Z,59.74
2023-06-07T06:01:00.498Z,70.79
2023-06-07T06:01:30.594Z,67.35
2023-06-07T06:02:00.752Z,62.88
2023-06-07T06:02:30.870Z,64.24
2023-06-07T06:03:00.913Z,59.50
2023-06-07T06:03:31.191Z,57.91
2023-06-07T06:04:00.768Z,54.95
2023-06-07T06:04:31.343Z,57.75
2023-06-07T06:05:00.951Z,62.40
2023-06-07T06:05:30.991Z,62.83
2023-06-07T06:06:01.047Z,60.32
2023-06-07T06:06:31.341Z,58.33
2023-06-07T06:07:01.246Z,58.83
2023-06-07T06:07:31.215Z,59.90
2023-06-07T06:08:07.689Z,57.95
2023-06-07T06:08:38.769Z,60.89
2023-06-07T06:09:08.855Z,58.58
2023-06-07T06:09:39.013Z,60.07
2023-06-07T06:10:08.900Z,55.59
2023-06-07T06:10:38.839Z,57.55
2023-06-07T06:11:08.972Z,56.61
2023-06-07T06:11:38.939Z,55.42
2023-06-07T06:12:09.157Z,56.68
2023-06-07T06:12:39.060Z,55.73
2023-06-07T06:13:09.024Z,56.76
2023-06-07T06:13:39.145Z,62.23
2023-06-07T06:14:09.156Z,58.35
2023-06-07T06:14:39.171Z,52.78
2023-06-07T06:15:09.295Z,54.36
2023-06-07T06:15:39.250Z,58.73
2023-06-07T06:16:12.359Z,55.67
2023-06-07T06:16:39.360Z,54.07
2023-06-07T06:17:09.592Z,51.71
2023-06-07T06:17:39.465Z,53.96
2023-06-07T06:18:09.725Z,53.47
2023-06-07T06:18:39.549Z,55.78
2023-06-07T06:19:09.535Z,53.24
2023-06-07T06:19:39.707Z,59.04
2023-06-07T06:20:09.738Z,55.87
2023-06-07T06:20:39.746Z,57.86
2023-06-07T06:21:09.874Z,55.32
2023-06-07T06:21:39.797Z,54.76
2023-06-07T06:22:09.782Z,56.03
2023-06-07T06:22:46.195Z,59.06
2023-06-07T06:23:17.217Z,58.30
2023-06-07T06:23:47.557Z,58.25
2023-06-07T06:24:17.322Z,61.70
2023-06-07T06:24:47.388Z,55.05
2023-06-07T06:25:17.393Z,57.52
2023-06-07T06:25:47.402Z,63.48
2023-06-07T06:26:23.814Z,67.53
2023-06-07T06:26:54.828Z,57.74
2023-06-07T06:27:25.054Z,63.48
2023-06-07T06:27:54.994Z,55.07
2023-06-07T06:28:25.019Z,55.17
2023-06-07T06:28:55.236Z,52.82
2023-06-07T06:29:25.136Z,55.64
2023-06-07T06:29:55.195Z,60.24
2023-06-07T06:30:25.203Z,61.31
2023-06-07T06:30:55.181Z,58.69
2023-06-07T06:31:25.250Z,53.27
2023-06-07T06:31:55.465Z,57.55
2023-06-07T06:32:25.386Z,54.96
2023-06-07T06:32:55.380Z,56.62
2023-06-07T06:33:25.402Z,57.14
2023-06-07T06:33:55.465Z,55.28
2023-06-07T06:34:25.536Z,56.51
2023-06-07T06:34:55.852Z,55.13
2023-06-07T06:35:25.518Z,58.28
2023-06-07T06:35:55.623Z,61.44
2023-06-07T06:36:25.724Z,58.81
2023-06-07T06:36:55.704Z,55.27
2023-06-07T06:37:32.114Z,59.27
2023-06-07T06:38:02.936Z,58.50
2023-06-07T06:38:32.983Z,59.47
2023-06-07T06:39:02.976Z,55.66
2023-06-07T06:39:32.919Z,57.88
2023-06-07T06:40:03.306Z,54.76
2023-06-07T06:40:33.089Z,51.11
2023-06-07T06:41:02.977Z,52.42
2023-06-07T06:41:33.011Z,58.08
2023-06-07T06:42:02.933Z,61.14
2023-06-07T06:42:32.971Z,58.92
2023-06-07T06:43:02.991Z,61.65
2023-06-07T06:43:33.120Z,58.87
2023-06-07T06:44:02.949Z,55.08
2023-06-07T06:44:32.973Z,54.16
2023-06-07T06:45:02.991Z,59.18
2023-06-07T06:45:32.992Z,56.12
2023-06-07T06:46:02.929Z,63.72
2023-06-07T06:46:33.069Z,65.26
2023-06-07T06:47:03.054Z,60.62
2023-06-07T06:47:32.953Z,61.86
2023-06-07T06:48:02.967Z,56.90
2023-06-07T06:48:32.952Z,56.27
2023-06-07T06:49:13.197Z,56.71
2023-06-07T06:49:40.445Z,56.10
2023-06-07T06:50:22.714Z,52.10
2023-06-07T06:50:41.331Z,56.21
2023-06-07T06:51:17.902Z,56.37
2023-06-07T06:51:48.860Z,54.25
2023-06-07T06:52:18.922Z,59.94
2023-06-07T06:52:48.985Z,51.03
2023-06-07T06:53:19.084Z,52.03
2023-06-07T06:53:49.166Z,52.60
2023-06-07T06:54:19.426Z,63.25
2023-06-07T06:54:49.314Z,55.79
2023-06-07T06:55:19.341Z,56.03
2023-06-07T06:55:49.355Z,58.06
2023-06-07T06:56:19.335Z,53.98
2023-06-07T06:56:49.420Z,54.83
2023-06-07T06:57:19.674Z,58.76
2023-06-07T06:57:49.588Z,56.99
2023-06-07T06:58:19.550Z,55.46
2023-06-07T06:58:49.613Z,56.29
2023-06-07T06:59:19.698Z,64.89
2023-06-07T07:00:02.212Z,57.19
2023-06-07T07:00:19.830Z,59.21
2023-06-07T07:00:49.880Z,61.04
2023-06-07T07:01:20.173Z,65.34
2023-06-07T07:01:49.947Z,57.25
2023-06-07T07:02:20.162Z,51.47
2023-06-07T07:02:50.179Z,62.30
2023-06-07T07:03:20.096Z,54.56
2023-06-07T07:03:50.139Z,51.79
2023-06-07T07:04:20.100Z,49.29
2023-06-07T07:04:50.136Z,54.80
2023-06-07T07:05:20.221Z,49.28
2023-06-07T07:05:50.380Z,48.87
2023-06-07T07:06:20.281Z,51.33
2023-06-07T07:06:50.298Z,54.69
2023-06-07T07:07:20.341Z,59.39
2023-06-07T07:07:50.303Z,50.04
2023-06-07T07:08:20.425Z,51.04
2023-06-07T07:08:50.577Z,53.48
2023-06-07T07:09:20.450Z,52.55
2023-06-07T07:09:50.556Z,51.58
2023-06-07T07:10:20.647Z,49.17
2023-06-07T07:10:50.623Z,57.51
2023-06-07T07:11:20.683Z,60.81
2023-06-07T07:11:50.914Z,61.32
2023-06-07T07:12:20.841Z,55.80
2023-06-07T07:12:50.858Z,54.83
2023-06-07T07:13:20.847Z,55.69
2023-06-07T07:13:50.975Z,55.05
2023-06-07T07:14:20.965Z,57.68
2023-06-07T07:14:51.090Z,55.57
2023-06-07T07:15:20.992Z,51.60
2023-06-07T07:15:51.014Z,56.59
2023-06-07T07:16:21.030Z,51.90
2023-06-07T07:16:51.127Z,51.81
2023-06-07T07:17:21.076Z,53.72
2023-06-07T07:17:51.291Z,50.59
2023-06-07T07:18:21.133Z,53.36
2023-06-07T07:18:51.118Z,49.56
2023-06-07T07:19:21.227Z,50.60
2023-06-07T07:19:51.198Z,51.74
2023-06-07T07:20:21.326Z,54.03
2023-06-07T07:20:51.492Z,49.15
2023-06-07T07:21:21.397Z,51.45
2023-06-07T07:21:51.588Z,53.62
2023-06-07T07:22:21.470Z,52.01
2023-06-07T07:22:51.580Z,58.05
2023-06-07T07:23:21.588Z,51.64
2023-06-07T07:23:51.769Z,58.07
2023-06-07T07:24:21.628Z,57.89
2023-06-07T07:24:51.645Z,49.97
2023-06-07T07:25:21.633Z,56.01
2023-06-07T07:25:51.737Z,49.60
2023-06-07T07:26:21.834Z,56.68
2023-06-07T07:26:51.929Z,55.51
2023-06-07T07:27:21.950Z,63.30
2023-06-07T07:27:52.108Z,71.77
2023-06-07T07:28:22.034Z,64.01
2023-06-07T07:28:52.153Z,55.49
2023-06-07T07:29:22.052Z,61.78
2023-06-07T07:29:52.135Z,62.04
2023-06-07T07:30:22.131Z,74.19
2023-06-07T07:30:52.208Z,62.67
2023-06-07T07:31:22.381Z,60.45
2023-06-07T07:31:52.347Z,63.75
2023-06-07T07:32:22.431Z,60.66
2023-06-07T07:32:52.550Z,55.21
2023-06-07T07:33:22.429Z,55.09
2023-06-07T07:33:52.558Z,59.52
2023-06-07T07:34:22.579Z,61.22
2023-06-07T07:34:52.651Z,59.40
2023-06-07T07:35:22.720Z,60.07
2023-06-07T07:35:52.758Z,59.33
2023-06-07T07:36:22.671Z,55.12
2023-06-07T07:36:52.660Z,60.26
2023-06-07T07:37:22.861Z,61.09
2023-06-07T07:37:52.909Z,58.23
2023-06-07T07:38:23.052Z,57.96
2023-06-07T07:38:52.921Z,58.02
2023-06-07T07:39:23.014Z,56.61
2023-06-07T07:39:53.006Z,63.02
2023-06-07T07:40:23.121Z,66.32
2023-06-07T07:40:53.156Z,59.93
2023-06-07T07:41:23.259Z,63.45
2023-06-07T07:41:53.275Z,62.56
2023-06-07T07:42:23.259Z,61.52
2023-06-07T07:42:53.391Z,53.69
2023-06-07T07:43:23.407Z,55.05
2023-06-07T07:43:54.612Z,57.08
2023-06-07T07:44:23.553Z,57.28
2023-06-07T07:44:53.464Z,60.22
2023-06-07T07:45:23.528Z,56.77
2023-06-07T07:45:53.637Z,58.34
2023-06-07T07:46:23.596Z,57.19
2023-06-07T07:46:53.569Z,62.83
2023-06-07T07:47:23.873Z,56.27
2023-06-07T07:47:53.772Z,55.59
2023-06-07T07:48:23.751Z,60.45
2023-06-07T07:48:53.824Z,65.64
2023-06-07T07:49:23.906Z,63.37
